Burnt Prairie, Illinois
Current Conditions -  °F | °C
As of 3:35 AM on Monday 22 Dec 2014 (Local Time) from KFWC Reporting Station
Overcast Overcast  
Wind Chill: 32°   Ceiling: 8500
Heat Index: 37°   Visibility: 10mi
Dew Point: 31°   Wind: 6mph
Humidity: 80%   Direction: 100°E
Pressure: 29.92"   Gusts: NA
Location:  38.25°N, 88.26°W
Report Text: KFWC 220935Z AUTO 10005KT 10SM SCT065 OVC085 03/00 A2992 RMK AO1 T00261005
Loading
Personal Weather Stations






























Interactive Weather Map New forecast layout! Learn more

10-Day Weather Forecast

Advertisements
Track Severe Weather on mobile